sensor_id;sensor_type;location;lat;lon;timestamp;P1;durP1;ratioP1;P2;durP2;ratioP2
8421;SDS011;4248;48.196;10.924;2023-04-19T00:02:24;20.53;;;12.37;;
8421;SDS011;4248;48.196;10.924;2023-04-19T00:04:49;17.53;;;11.60;;
8421;SDS011;4248;48.196;10.924;2023-04-19T00:07:15;20.47;;;13.10;;
8421;SDS011;4248;48.196;10.924;2023-04-19T00:09:42;18.10;;;11.53;;
8421;SDS011;4248;48.196;10.924;2023-04-19T00:12:08;21.10;;;13.83;;
8421;SDS011;4248;48.196;10.924;2023-04-19T00:14:33;19.03;;;12.80;;
8421;SDS011;4248;48.196;10.924;2023-04-19T00:16:59;21.67;;;13.03;;
8421;SDS011;4248;48.196;10.924;2023-04-19T00:19:25;19.80;;;13.67;;
8421;SDS011;4248;48.196;10.924;2023-04-19T00:21:51;19.17;;;12.77;;
8421;SDS011;4248;48.196;10.924;2023-04-19T00:24:16;21.30;;;14.43;;
8421;SDS011;4248;48.196;10.924;2023-04-19T00:26:42;17.70;;;12.87;;
8421;SDS011;4248;48.196;10.924;2023-04-19T00:29:08;19.93;;;12.90;;
8421;SDS011;4248;48.196;10.924;2023-04-19T00:31:35;21.47;;;13.03;;
8421;SDS011;4248;48.196;10.924;2023-04-19T00:34:00;21.00;;;13.60;;
8421;SDS011;4248;48.196;10.924;2023-04-19T00:36:27;18.40;;;12.57;;
8421;SDS011;4248;48.196;10.924;2023-04-19T00:38:52;17.60;;;13.10;;
8421;SDS011;4248;48.196;10.924;2023-04-19T00:41:18;17.23;;;11.83;;
8421;SDS011;4248;48.196;10.924;2023-04-19T00:43:43;21.20;;;12.10;;
8421;SDS011;4248;48.196;10.924;2023-04-19T00:46:09;20.53;;;12.67;;
8421;SDS011;4248;48.196;10.924;2023-04-19T00:48:35;19.20;;;12.87;;
8421;SDS011;4248;48.196;10.924;2023-04-19T00:51:01;20.47;;;12.80;;
8421;SDS011;4248;48.196;10.924;2023-04-19T00:53:27;19.13;;;13.60;;
8421;SDS011;4248;48.196;10.924;2023-04-19T00:55:54;19.07;;;12.13;;
8421;SDS011;4248;48.196;10.924;2023-04-19T00:58:23;18.27;;;12.57;;
8421;SDS011;4248;48.196;10.924;2023-04-19T01:00:49;19.73;;;12.90;;
8421;SDS011;4248;48.196;10.924;2023-04-19T01:03:15;17.83;;;12.27;;
8421;SDS011;4248;48.196;10.924;2023-04-19T01:05:41;20.17;;;13.27;;
8421;SDS011;4248;48.196;10.924;2023-04-19T01:08:06;19.40;;;12.47;;
8421;SDS011;4248;48.196;10.924;2023-04-19T01:10:32;20.87;;;13.30;;
8421;SDS011;4248;48.196;10.924;2023-04-19T01:12:58;19.10;;;13.10;;
8421;SDS011;4248;48.196;10.924;2023-04-19T01:15:24;15.40;;;11.00;;
8421;SDS011;4248;48.196;10.924;2023-04-19T01:17:50;22.73;;;13.67;;
8421;SDS011;4248;48.196;10.924;2023-04-19T01:20:15;22.40;;;14.43;;
8421;SDS011;4248;48.196;10.924;2023-04-19T01:22:41;22.30;;;15.07;;
8421;SDS011;4248;48.196;10.924;2023-04-19T01:25:07;21.87;;;12.80;;
8421;SDS011;4248;48.196;10.924;2023-04-19T01:27:33;18.77;;;13.00;;
8421;SDS011;4248;48.196;10.924;2023-04-19T01:29:58;18.53;;;12.33;;
8421;SDS011;4248;48.196;10.924;2023-04-19T01:32:24;20.63;;;13.60;;
8421;SDS011;4248;48.196;10.924;2023-04-19T01:34:52;23.97;;;15.07;;
8421;SDS011;4248;48.196;10.924;2023-04-19T01:37:18;23.20;;;14.70;;
8421;SDS011;4248;48.196;10.924;2023-04-19T01:39:43;25.07;;;14.70;;
8421;SDS011;4248;48.196;10.924;2023-04-19T01:42:09;20.37;;;14.30;;
8421;SDS011;4248;48.196;10.924;2023-04-19T01:44:34;21.17;;;13.97;;
8421;SDS011;4248;48.196;10.924;2023-04-19T01:47:00;20.80;;;14.13;;
8421;SDS011;4248;48.196;10.924;2023-04-19T01:49:26;27.43;;;14.63;;
8421;SDS011;4248;48.196;10.924;2023-04-19T01:51:51;24.10;;;14.30;;
8421;SDS011;4248;48.196;10.924;2023-04-19T01:54:17;22.70;;;15.50;;
8421;SDS011;4248;48.196;10.924;2023-04-19T01:56:42;24.43;;;15.80;;
8421;SDS011;4248;48.196;10.924;2023-04-19T01:59:08;23.23;;;15.80;;
8421;SDS011;4248;48.196;10.924;2023-04-19T02:01:34;21.87;;;14.93;;
8421;SDS011;4248;48.196;10.924;2023-04-19T02:04:01;22.40;;;15.60;;
8421;SDS011;4248;48.196;10.924;2023-04-19T02:06:26;23.20;;;15.17;;
8421;SDS011;4248;48.196;10.924;2023-04-19T02:08:52;23.67;;;14.90;;
8421;SDS011;4248;48.196;10.924;2023-04-19T02:11:17;22.47;;;14.70;;
8421;SDS011;4248;48.196;10.924;2023-04-19T02:13:43;22.10;;;15.30;;
8421;SDS011;4248;48.196;10.924;2023-04-19T02:16:09;20.60;;;14.13;;
8421;SDS011;4248;48.196;10.924;2023-04-19T02:18:35;22.40;;;13.80;;
8421;SDS011;4248;48.196;10.924;2023-04-19T02:21:02;26.30;;;14.67;;
8421;SDS011;4248;48.196;10.924;2023-04-19T02:23:28;21.60;;;13.90;;
8421;SDS011;4248;48.196;10.924;2023-04-19T02:25:54;26.67;;;15.87;;
8421;SDS011;4248;48.196;10.924;2023-04-19T02:28:20;25.87;;;16.00;;
8421;SDS011;4248;48.196;10.924;2023-04-19T02:30:45;23.77;;;15.27;;
8421;SDS011;4248;48.196;10.924;2023-04-19T02:33:11;22.93;;;14.87;;
8421;SDS011;4248;48.196;10.924;2023-04-19T02:35:37;23.20;;;15.70;;
8421;SDS011;4248;48.196;10.924;2023-04-19T02:38:03;25.63;;;16.93;;
8421;SDS011;4248;48.196;10.924;2023-04-19T02:40:29;26.03;;;15.70;;
8421;SDS011;4248;48.196;10.924;2023-04-19T02:42:54;23.57;;;15.77;;
8421;SDS011;4248;48.196;10.924;2023-04-19T02:45:20;28.67;;;17.97;;
8421;SDS011;4248;48.196;10.924;2023-04-19T02:47:46;26.60;;;16.20;;
8421;SDS011;4248;48.196;10.924;2023-04-19T02:50:14;24.80;;;15.83;;
8421;SDS011;4248;48.196;10.924;2023-04-19T02:52:40;22.27;;;16.10;;
8421;SDS011;4248;48.196;10.924;2023-04-19T02:55:06;30.20;;;16.33;;
8421;SDS011;4248;48.196;10.924;2023-04-19T02:57:32;26.80;;;16.87;;
8421;SDS011;4248;48.196;10.924;2023-04-19T02:59:58;23.90;;;17.00;;
8421;SDS011;4248;48.196;10.924;2023-04-19T03:02:24;30.63;;;20.93;;
8421;SDS011;4248;48.196;10.924;2023-04-19T03:04:50;30.77;;;20.40;;
8421;SDS011;4248;48.196;10.924;2023-04-19T03:07:17;28.37;;;19.07;;
8421;SDS011;4248;48.196;10.924;2023-04-19T03:09:42;29.90;;;19.60;;
8421;SDS011;4248;48.196;10.924;2023-04-19T03:12:08;31.00;;;20.17;;
8421;SDS011;4248;48.196;10.924;2023-04-19T03:14:34;33.40;;;19.50;;
8421;SDS011;4248;48.196;10.924;2023-04-19T03:16:59;35.07;;;21.53;;
8421;SDS011;4248;48.196;10.924;2023-04-19T03:19:25;32.70;;;19.63;;
8421;SDS011;4248;48.196;10.924;2023-04-19T03:21:51;33.17;;;21.17;;
8421;SDS011;4248;48.196;10.924;2023-04-19T03:24:17;40.13;;;25.30;;
8421;SDS011;4248;48.196;10.924;2023-04-19T03:26:44;30.17;;;20.30;;
8421;SDS011;4248;48.196;10.924;2023-04-19T03:29:09;37.80;;;20.80;;
8421;SDS011;4248;48.196;10.924;2023-04-19T03:31:35;34.50;;;22.93;;
8421;SDS011;4248;48.196;10.924;2023-04-19T03:34:01;35.80;;;24.10;;
8421;SDS011;4248;48.196;10.924;2023-04-19T03:36:27;41.67;;;22.47;;
8421;SDS011;4248;48.196;10.924;2023-04-19T03:38:53;33.47;;;20.57;;
8421;SDS011;4248;48.196;10.924;2023-04-19T03:43:51;36.93;;;23.07;;
8421;SDS011;4248;48.196;10.924;2023-04-19T03:46:16;37.27;;;23.23;;
8421;SDS011;4248;48.196;10.924;2023-04-19T03:48:42;40.20;;;25.50;;
8421;SDS011;4248;48.196;10.924;2023-04-19T03:51:08;36.20;;;23.50;;
8421;SDS011;4248;48.196;10.924;2023-04-19T03:53:34;36.20;;;22.40;;
8421;SDS011;4248;48.196;10.924;2023-04-19T03:56:00;34.67;;;20.83;;
8421;SDS011;4248;48.196;10.924;2023-04-19T03:58:25;32.67;;;20.53;;
8421;SDS011;4248;48.196;10.924;2023-04-19T04:00:51;34.73;;;21.07;;
8421;SDS011;4248;48.196;10.924;2023-04-19T04:03:17;32.40;;;22.37;;
8421;SDS011;4248;48.196;10.924;2023-04-19T04:05:43;34.17;;;21.00;;
8421;SDS011;4248;48.196;10.924;2023-04-19T04:08:09;34.20;;;21.87;;
8421;SDS011;4248;48.196;10.924;2023-04-19T04:10:34;35.27;;;21.80;;
8421;SDS011;4248;48.196;10.924;2023-04-19T04:13:00;34.60;;;21.27;;
8421;SDS011;4248;48.196;10.924;2023-04-19T04:15:25;36.57;;;21.90;;
8421;SDS011;4248;48.196;10.924;2023-04-19T04:17:51;36.37;;;23.27;;
8421;SDS011;4248;48.196;10.924;2023-04-19T04:20:17;36.17;;;23.37;;
8421;SDS011;4248;48.196;10.924;2023-04-19T04:22:43;38.03;;;23.60;;
8421;SDS011;4248;48.196;10.924;2023-04-19T04:25:10;36.30;;;23.20;;
8421;SDS011;4248;48.196;10.924;2023-04-19T04:27:36;39.80;;;25.17;;
8421;SDS011;4248;48.196;10.924;2023-04-19T04:30:03;44.07;;;23.47;;
8421;SDS011;4248;48.196;10.924;2023-04-19T04:32:30;35.80;;;22.50;;
8421;SDS011;4248;48.196;10.924;2023-04-19T04:34:59;37.57;;;22.77;;
8421;SDS011;4248;48.196;10.924;2023-04-19T04:37:30;32.50;;;21.70;;
8421;SDS011;4248;48.196;10.924;2023-04-19T04:39:58;39.90;;;22.47;;
8421;SDS011;4248;48.196;10.924;2023-04-19T04:42:25;34.90;;;21.27;;
8421;SDS011;4248;48.196;10.924;2023-04-19T04:44:51;36.57;;;21.37;;
8421;SDS011;4248;48.196;10.924;2023-04-19T04:47:17;41.70;;;22.90;;
8421;SDS011;4248;48.196;10.924;2023-04-19T04:49:43;33.67;;;21.13;;
8421;SDS011;4248;48.196;10.924;2023-04-19T04:52:08;34.37;;;21.37;;
8421;SDS011;4248;48.196;10.924;2023-04-19T04:54:34;42.70;;;21.50;;
8421;SDS011;4248;48.196;10.924;2023-04-19T04:57:00;34.33;;;21.50;;
8421;SDS011;4248;48.196;10.924;2023-04-19T04:59:26;43.30;;;22.33;;
8421;SDS011;4248;48.196;10.924;2023-04-19T05:01:52;34.63;;;21.80;;
8421;SDS011;4248;48.196;10.924;2023-04-19T05:04:18;35.33;;;22.47;;
8421;SDS011;4248;48.196;10.924;2023-04-19T05:06:43;42.60;;;24.53;;
8421;SDS011;4248;48.196;10.924;2023-04-19T05:09:09;41.00;;;23.47;;
8421;SDS011;4248;48.196;10.924;2023-04-19T05:11:35;36.43;;;22.40;;
8421;SDS011;4248;48.196;10.924;2023-04-19T05:14:01;37.23;;;23.33;;
8421;SDS011;4248;48.196;10.924;2023-04-19T05:16:27;38.17;;;22.13;;
8421;SDS011;4248;48.196;10.924;2023-04-19T05:18:53;43.27;;;23.60;;
8421;SDS011;4248;48.196;10.924;2023-04-19T05:21:19;32.83;;;22.20;;
8421;SDS011;4248;48.196;10.924;2023-04-19T05:23:45;40.70;;;23.37;;
8421;SDS011;4248;48.196;10.924;2023-04-19T05:26:11;46.87;;;25.00;;
8421;SDS011;4248;48.196;10.924;2023-04-19T05:28:39;34.90;;;21.27;;
8421;SDS011;4248;48.196;10.924;2023-04-19T05:31:05;39.77;;;25.23;;
8421;SDS011;4248;48.196;10.924;2023-04-19T05:33:32;35.30;;;22.70;;
8421;SDS011;4248;48.196;10.924;2023-04-19T05:35:58;37.63;;;23.27;;
8421;SDS011;4248;48.196;10.924;2023-04-19T05:38:23;38.73;;;23.50;;
8421;SDS011;4248;48.196;10.924;2023-04-19T05:40:49;37.57;;;22.60;;
8421;SDS011;4248;48.196;10.924;2023-04-19T05:43:15;39.07;;;20.63;;
8421;SDS011;4248;48.196;10.924;2023-04-19T05:45:40;38.27;;;22.13;;
8421;SDS011;4248;48.196;10.924;2023-04-19T05:48:06;35.97;;;21.10;;
8421;SDS011;4248;48.196;10.924;2023-04-19T05:50:32;42.47;;;24.30;;
8421;SDS011;4248;48.196;10.924;2023-04-19T05:53:00;38.90;;;23.20;;
8421;SDS011;4248;48.196;10.924;2023-04-19T05:55:26;36.87;;;21.20;;
8421;SDS011;4248;48.196;10.924;2023-04-19T05:57:51;38.50;;;21.50;;
8421;SDS011;4248;48.196;10.924;2023-04-19T06:00:17;37.63;;;22.33;;
8421;SDS011;4248;48.196;10.924;2023-04-19T06:02:42;40.47;;;22.80;;
8421;SDS011;4248;48.196;10.924;2023-04-19T06:05:08;35.97;;;19.63;;
8421;SDS011;4248;48.196;10.924;2023-04-19T06:07:34;39.10;;;22.77;;
8421;SDS011;4248;48.196;10.924;2023-04-19T06:10:00;34.30;;;20.40;;
8421;SDS011;4248;48.196;10.924;2023-04-19T06:12:25;32.90;;;21.23;;
8421;SDS011;4248;48.196;10.924;2023-04-19T06:14:51;39.67;;;22.17;;
8421;SDS011;4248;48.196;10.924;2023-04-19T06:17:17;37.57;;;21.30;;
8421;SDS011;4248;48.196;10.924;2023-04-19T06:19:48;37.27;;;21.17;;
8421;SDS011;4248;48.196;10.924;2023-04-19T06:22:14;38.87;;;22.47;;
8421;SDS011;4248;48.196;10.924;2023-04-19T06:24:40;35.87;;;20.63;;
8421;SDS011;4248;48.196;10.924;2023-04-19T06:27:05;37.50;;;21.97;;
8421;SDS011;4248;48.196;10.924;2023-04-19T06:29:31;34.60;;;20.50;;
8421;SDS011;4248;48.196;10.924;2023-04-19T06:31:56;44.40;;;22.33;;
8421;SDS011;4248;48.196;10.924;2023-04-19T06:34:22;38.20;;;21.13;;
8421;SDS011;4248;48.196;10.924;2023-04-19T06:36:48;40.00;;;23.30;;
8421;SDS011;4248;48.196;10.924;2023-04-19T06:39:13;34.37;;;20.63;;
8421;SDS011;4248;48.196;10.924;2023-04-19T06:41:39;35.67;;;20.80;;
8421;SDS011;4248;48.196;10.924;2023-04-19T06:44:05;36.43;;;20.50;;
8421;SDS011;4248;48.196;10.924;2023-04-19T06:46:30;38.97;;;21.17;;
8421;SDS011;4248;48.196;10.924;2023-04-19T06:48:56;36.80;;;20.70;;
8421;SDS011;4248;48.196;10.924;2023-04-19T06:51:22;39.07;;;21.63;;
8421;SDS011;4248;48.196;10.924;2023-04-19T06:53:48;38.73;;;20.10;;
8421;SDS011;4248;48.196;10.924;2023-04-19T06:56:14;32.53;;;18.67;;
8421;SDS011;4248;48.196;10.924;2023-04-19T06:58:40;34.07;;;20.33;;
8421;SDS011;4248;48.196;10.924;2023-04-19T07:01:06;36.13;;;19.80;;
8421;SDS011;4248;48.196;10.924;2023-04-19T07:03:33;35.77;;;19.03;;
8421;SDS011;4248;48.196;10.924;2023-04-19T07:05:58;35.90;;;20.53;;
8421;SDS011;4248;48.196;10.924;2023-04-19T07:08:24;34.07;;;19.57;;
8421;SDS011;4248;48.196;10.924;2023-04-19T07:10:50;31.10;;;18.87;;
8421;SDS011;4248;48.196;10.924;2023-04-19T07:13:17;41.63;;;19.87;;
8421;SDS011;4248;48.196;10.924;2023-04-19T07:15:42;40.10;;;20.20;;
8421;SDS011;4248;48.196;10.924;2023-04-19T07:18:08;32.27;;;18.90;;
8421;SDS011;4248;48.196;10.924;2023-04-19T07:20:35;31.87;;;18.17;;
8421;SDS011;4248;48.196;10.924;2023-04-19T07:23:00;30.93;;;17.37;;
8421;SDS011;4248;48.196;10.924;2023-04-19T07:25:26;30.47;;;18.13;;
8421;SDS011;4248;48.196;10.924;2023-04-19T07:27:52;32.27;;;18.57;;
8421;SDS011;4248;48.196;10.924;2023-04-19T07:30:18;34.50;;;18.70;;
8421;SDS011;4248;48.196;10.924;2023-04-19T07:32:44;31.40;;;18.20;;
8421;SDS011;4248;48.196;10.924;2023-04-19T07:35:10;35.97;;;19.00;;
8421;SDS011;4248;48.196;10.924;2023-04-19T07:37:36;29.53;;;19.57;;
8421;SDS011;4248;48.196;10.924;2023-04-19T07:40:01;33.50;;;18.80;;
8421;SDS011;4248;48.196;10.924;2023-04-19T07:42:28;29.60;;;18.33;;
8421;SDS011;4248;48.196;10.924;2023-04-19T07:44:54;36.80;;;20.13;;
8421;SDS011;4248;48.196;10.924;2023-04-19T07:47:20;37.47;;;18.17;;
8421;SDS011;4248;48.196;10.924;2023-04-19T07:49:46;30.10;;;18.27;;
8421;SDS011;4248;48.196;10.924;2023-04-19T07:52:15;33.00;;;17.93;;
8421;SDS011;4248;48.196;10.924;2023-04-19T07:54:42;30.93;;;17.50;;
8421;SDS011;4248;48.196;10.924;2023-04-19T07:57:08;28.40;;;17.40;;
8421;SDS011;4248;48.196;10.924;2023-04-19T07:59:33;30.10;;;17.20;;
8421;SDS011;4248;48.196;10.924;2023-04-19T08:01:59;30.70;;;17.37;;
8421;SDS011;4248;48.196;10.924;2023-04-19T08:04:25;27.60;;;17.30;;
8421;SDS011;4248;48.196;10.924;2023-04-19T08:06:50;28.90;;;16.97;;
8421;SDS011;4248;48.196;10.924;2023-04-19T08:09:17;31.00;;;16.97;;
8421;SDS011;4248;48.196;10.924;2023-04-19T08:11:42;30.17;;;17.60;;
8421;SDS011;4248;48.196;10.924;2023-04-19T08:14:08;31.33;;;20.00;;
8421;SDS011;4248;48.196;10.924;2023-04-19T08:16:34;30.27;;;18.30;;
8421;SDS011;4248;48.196;10.924;2023-04-19T08:18:59;32.20;;;19.90;;
8421;SDS011;4248;48.196;10.924;2023-04-19T08:21:25;31.23;;;19.53;;
8421;SDS011;4248;48.196;10.924;2023-04-19T08:23:50;31.43;;;18.90;;
8421;SDS011;4248;48.196;10.924;2023-04-19T08:26:16;31.57;;;19.73;;
8421;SDS011;4248;48.196;10.924;2023-04-19T08:28:42;35.83;;;19.50;;
8421;SDS011;4248;48.196;10.924;2023-04-19T08:31:07;30.87;;;19.00;;
8421;SDS011;4248;48.196;10.924;2023-04-19T08:33:34;29.93;;;19.13;;
8421;SDS011;4248;48.196;10.924;2023-04-19T08:36:00;31.80;;;20.73;;
8421;SDS011;4248;48.196;10.924;2023-04-19T08:38:25;35.93;;;20.73;;
8421;SDS011;4248;48.196;10.924;2023-04-19T08:40:52;30.10;;;19.03;;
8421;SDS011;4248;48.196;10.924;2023-04-19T08:43:19;28.03;;;17.93;;
8421;SDS011;4248;48.196;10.924;2023-04-19T08:45:46;31.63;;;20.23;;
8421;SDS011;4248;48.196;10.924;2023-04-19T08:48:14;30.40;;;19.30;;
8421;SDS011;4248;48.196;10.924;2023-04-19T08:50:40;28.47;;;18.87;;
8421;SDS011;4248;48.196;10.924;2023-04-19T08:53:07;30.07;;;18.90;;
8421;SDS011;4248;48.196;10.924;2023-04-19T08:55:34;35.20;;;17.70;;
8421;SDS011;4248;48.196;10.924;2023-04-19T08:58:01;29.83;;;18.63;;
8421;SDS011;4248;48.196;10.924;2023-04-19T09:00:28;26.63;;;17.50;;
8421;SDS011;4248;48.196;10.924;2023-04-19T09:02:54;36.20;;;18.27;;
8421;SDS011;4248;48.196;10.924;2023-04-19T09:05:20;27.97;;;18.47;;
8421;SDS011;4248;48.196;10.924;2023-04-19T09:07:46;28.00;;;18.23;;
8421;SDS011;4248;48.196;10.924;2023-04-19T09:10:13;29.17;;;17.80;;
8421;SDS011;4248;48.196;10.924;2023-04-19T09:12:40;29.50;;;17.73;;
8421;SDS011;4248;48.196;10.924;2023-04-19T09:15:07;26.23;;;16.07;;
8421;SDS011;4248;48.196;10.924;2023-04-19T09:17:34;31.87;;;18.70;;
8421;SDS011;4248;48.196;10.924;2023-04-19T09:20:00;30.43;;;16.83;;
8421;SDS011;4248;48.196;10.924;2023-04-19T09:22:28;27.43;;;16.47;;
8421;SDS011;4248;48.196;10.924;2023-04-19T09:24:54;25.20;;;16.50;;
8421;SDS011;4248;48.196;10.924;2023-04-19T09:29:59;24.40;;;14.93;;
8421;SDS011;4248;48.196;10.924;2023-04-19T09:32:27;29.33;;;14.80;;
8421;SDS011;4248;48.196;10.924;2023-04-19T09:34:54;27.60;;;15.93;;
8421;SDS011;4248;48.196;10.924;2023-04-19T09:37:20;27.27;;;15.50;;
8421;SDS011;4248;48.196;10.924;2023-04-19T09:39:46;24.10;;;14.50;;
8421;SDS011;4248;48.196;10.924;2023-04-19T09:42:12;27.30;;;15.73;;
8421;SDS011;4248;48.196;10.924;2023-04-19T09:44:38;22.10;;;15.40;;
8421;SDS011;4248;48.196;10.924;2023-04-19T09:47:25;24.90;;;15.10;;
8421;SDS011;4248;48.196;10.924;2023-04-19T09:50:09;26.20;;;15.27;;
8421;SDS011;4248;48.196;10.924;2023-04-19T09:52:36;29.73;;;16.20;;
8421;SDS011;4248;48.196;10.924;2023-04-19T09:55:02;27.47;;;15.27;;
8421;SDS011;4248;48.196;10.924;2023-04-19T09:57:32;31.53;;;17.27;;
8421;SDS011;4248;48.196;10.924;2023-04-19T09:59:59;28.50;;;15.20;;
8421;SDS011;4248;48.196;10.924;2023-04-19T10:02:29;29.80;;;18.87;;
8421;SDS011;4248;48.196;10.924;2023-04-19T10:04:58;23.60;;;15.27;;
8421;SDS011;4248;48.196;10.924;2023-04-19T10:07:25;35.90;;;21.80;;
8421;SDS011;4248;48.196;10.924;2023-04-19T10:09:51;30.50;;;17.87;;
8421;SDS011;4248;48.196;10.924;2023-04-19T10:12:20;34.50;;;21.20;;
8421;SDS011;4248;48.196;10.924;2023-04-19T10:14:50;69.20;;;37.40;;
8421;SDS011;4248;48.196;10.924;2023-04-19T10:17:22;30.90;;;15.63;;
8421;SDS011;4248;48.196;10.924;2023-04-19T10:19:51;23.20;;;14.33;;
8421;SDS011;4248;48.196;10.924;2023-04-19T10:22:23;33.90;;;22.17;;
8421;SDS011;4248;48.196;10.924;2023-04-19T10:27:35;22.87;;;14.97;;
8421;SDS011;4248;48.196;10.924;2023-04-19T10:30:01;25.97;;;16.00;;
8421;SDS011;4248;48.196;10.924;2023-04-19T10:32:41;24.97;;;16.07;;
8421;SDS011;4248;48.196;10.924;2023-04-19T10:35:09;23.20;;;15.20;;
8421;SDS011;4248;48.196;10.924;2023-04-19T10:37:43;23.17;;;13.60;;
8421;SDS011;4248;48.196;10.924;2023-04-19T10:43:32;24.63;;;16.20;;
8421;SDS011;4248;48.196;10.924;2023-04-19T10:50:58;24.97;;;14.60;;
8421;SDS011;4248;48.196;10.924;2023-04-19T10:56:10;24.20;;;14.13;;
8421;SDS011;4248;48.196;10.924;2023-04-19T11:04:03;22.50;;;12.90;;
8421;SDS011;4248;48.196;10.924;2023-04-19T11:06:30;20.80;;;13.00;;
8421;SDS011;4248;48.196;10.924;2023-04-19T11:08:59;19.17;;;12.30;;
8421;SDS011;4248;48.196;10.924;2023-04-19T11:11:25;21.23;;;13.27;;
8421;SDS011;4248;48.196;10.924;2023-04-19T11:13:51;18.93;;;12.30;;
8421;SDS011;4248;48.196;10.924;2023-04-19T11:16:19;19.83;;;13.57;;
8421;SDS011;4248;48.196;10.924;2023-04-19T11:18:45;22.90;;;12.70;;
8421;SDS011;4248;48.196;10.924;2023-04-19T11:21:13;18.67;;;11.80;;
8421;SDS011;4248;48.196;10.924;2023-04-19T11:23:42;22.03;;;11.80;;
8421;SDS011;4248;48.196;10.924;2023-04-19T11:26:10;21.27;;;12.30;;
8421;SDS011;4248;48.196;10.924;2023-04-19T11:28:36;19.07;;;11.70;;
8421;SDS011;4248;48.196;10.924;2023-04-19T11:31:03;20.57;;;11.63;;
8421;SDS011;4248;48.196;10.924;2023-04-19T11:33:35;20.93;;;11.13;;
8421;SDS011;4248;48.196;10.924;2023-04-19T11:36:01;20.97;;;10.37;;
8421;SDS011;4248;48.196;10.924;2023-04-19T11:38:27;21.90;;;12.73;;
8421;SDS011;4248;48.196;10.924;2023-04-19T11:40:58;25.13;;;11.90;;
8421;SDS011;4248;48.196;10.924;2023-04-19T11:43:31;23.83;;;11.53;;
8421;SDS011;4248;48.196;10.924;2023-04-19T11:46:09;22.33;;;12.57;;
8421;SDS011;4248;48.196;10.924;2023-04-19T11:48:36;20.47;;;11.10;;
8421;SDS011;4248;48.196;10.924;2023-04-19T11:51:02;19.33;;;13.37;;
8421;SDS011;4248;48.196;10.924;2023-04-19T11:53:31;18.30;;;12.77;;
8421;SDS011;4248;48.196;10.924;2023-04-19T11:58:31;16.27;;;10.27;;
8421;SDS011;4248;48.196;10.924;2023-04-19T12:01:20;25.87;;;13.57;;
8421;SDS011;4248;48.196;10.924;2023-04-19T12:03:49;18.93;;;12.83;;
8421;SDS011;4248;48.196;10.924;2023-04-19T12:06:17;25.23;;;14.23;;
8421;SDS011;4248;48.196;10.924;2023-04-19T12:08:44;19.50;;;13.03;;
8421;SDS011;4248;48.196;10.924;2023-04-19T12:11:14;27.23;;;14.43;;
8421;SDS011;4248;48.196;10.924;2023-04-19T12:13:41;22.10;;;14.97;;
8421;SDS011;4248;48.196;10.924;2023-04-19T12:16:08;24.43;;;15.03;;
8421;SDS011;4248;48.196;10.924;2023-04-19T12:18:47;24.50;;;14.97;;
8421;SDS011;4248;48.196;10.924;2023-04-19T12:21:26;28.50;;;15.30;;
8421;SDS011;4248;48.196;10.924;2023-04-19T12:23:58;27.30;;;16.23;;
8421;SDS011;4248;48.196;10.924;2023-04-19T12:26:25;24.50;;;15.23;;
8421;SDS011;4248;48.196;10.924;2023-04-19T12:28:55;30.00;;;16.13;;
8421;SDS011;4248;48.196;10.924;2023-04-19T12:31:22;27.70;;;16.37;;
8421;SDS011;4248;48.196;10.924;2023-04-19T12:33:48;28.07;;;16.37;;
8421;SDS011;4248;48.196;10.924;2023-04-19T12:36:14;25.73;;;15.63;;
8421;SDS011;4248;48.196;10.924;2023-04-19T12:38:39;25.90;;;16.00;;
8421;SDS011;4248;48.196;10.924;2023-04-19T12:41:05;27.17;;;17.53;;
8421;SDS011;4248;48.196;10.924;2023-04-19T12:43:31;32.40;;;18.20;;
8421;SDS011;4248;48.196;10.924;2023-04-19T12:45:57;28.20;;;16.80;;
8421;SDS011;4248;48.196;10.924;2023-04-19T12:48:24;27.77;;;16.37;;
8421;SDS011;4248;48.196;10.924;2023-04-19T12:50:50;24.17;;;15.23;;
8421;SDS011;4248;48.196;10.924;2023-04-19T12:53:15;23.73;;;15.20;;
8421;SDS011;4248;48.196;10.924;2023-04-19T12:55:41;29.27;;;17.60;;
8421;SDS011;4248;48.196;10.924;2023-04-19T12:58:11;27.87;;;17.33;;
8421;SDS011;4248;48.196;10.924;2023-04-19T13:00:44;26.63;;;16.67;;
8421;SDS011;4248;48.196;10.924;2023-04-19T13:03:10;31.40;;;16.80;;
8421;SDS011;4248;48.196;10.924;2023-04-19T13:05:36;32.70;;;19.13;;
8421;SDS011;4248;48.196;10.924;2023-04-19T13:08:02;31.33;;;18.33;;
8421;SDS011;4248;48.196;10.924;2023-04-19T13:10:28;31.10;;;18.47;;
8421;SDS011;4248;48.196;10.924;2023-04-19T13:12:54;34.00;;;20.23;;
8421;SDS011;4248;48.196;10.924;2023-04-19T13:15:20;29.00;;;16.27;;
8421;SDS011;4248;48.196;10.924;2023-04-19T13:17:45;29.27;;;16.90;;
8421;SDS011;4248;48.196;10.924;2023-04-19T13:20:11;25.27;;;16.00;;
8421;SDS011;4248;48.196;10.924;2023-04-19T13:22:37;15.70;;;10.37;;
8421;SDS011;4248;48.196;10.924;2023-04-19T13:25:03;19.57;;;12.30;;
8421;SDS011;4248;48.196;10.924;2023-04-19T13:27:29;15.47;;;10.33;;
8421;SDS011;4248;48.196;10.924;2023-04-19T13:29:54;18.23;;;9.77;;
8421;SDS011;4248;48.196;10.924;2023-04-19T13:32:20;11.90;;;8.10;;
8421;SDS011;4248;48.196;10.924;2023-04-19T13:34:46;11.43;;;6.93;;
8421;SDS011;4248;48.196;10.924;2023-04-19T13:37:12;13.17;;;8.50;;
8421;SDS011;4248;48.196;10.924;2023-04-19T13:39:38;17.50;;;9.70;;
8421;SDS011;4248;48.196;10.924;2023-04-19T13:42:03;17.00;;;10.17;;
8421;SDS011;4248;48.196;10.924;2023-04-19T13:44:30;13.57;;;8.50;;
8421;SDS011;4248;48.196;10.924;2023-04-19T13:46:55;8.77;;;5.77;;
8421;SDS011;4248;48.196;10.924;2023-04-19T13:49:21;14.20;;;8.40;;
8421;SDS011;4248;48.196;10.924;2023-04-19T13:51:47;11.87;;;7.30;;
8421;SDS011;4248;48.196;10.924;2023-04-19T13:54:13;9.97;;;6.90;;
8421;SDS011;4248;48.196;10.924;2023-04-19T13:56:41;13.50;;;8.07;;
8421;SDS011;4248;48.196;10.924;2023-04-19T13:59:07;6.67;;;4.70;;
8421;SDS011;4248;48.196;10.924;2023-04-19T14:01:32;6.13;;;4.03;;
8421;SDS011;4248;48.196;10.924;2023-04-19T14:03:59;4.60;;;3.40;;
8421;SDS011;4248;48.196;10.924;2023-04-19T14:06:25;6.50;;;3.77;;
8421;SDS011;4248;48.196;10.924;2023-04-19T14:08:50;7.67;;;3.90;;
8421;SDS011;4248;48.196;10.924;2023-04-19T14:11:16;8.60;;;4.20;;
8421;SDS011;4248;48.196;10.924;2023-04-19T14:13:42;5.43;;;3.57;;
8421;SDS011;4248;48.196;10.924;2023-04-19T14:16:08;6.30;;;3.80;;
8421;SDS011;4248;48.196;10.924;2023-04-19T14:18:33;6.80;;;4.20;;
8421;SDS011;4248;48.196;10.924;2023-04-19T14:20:59;7.67;;;5.23;;
8421;SDS011;4248;48.196;10.924;2023-04-19T14:23:25;7.83;;;5.00;;
8421;SDS011;4248;48.196;10.924;2023-04-19T14:25:51;9.97;;;5.67;;
8421;SDS011;4248;48.196;10.924;2023-04-19T14:28:17;7.70;;;5.30;;
8421;SDS011;4248;48.196;10.924;2023-04-19T14:30:42;13.60;;;7.23;;
8421;SDS011;4248;48.196;10.924;2023-04-19T14:33:08;14.23;;;9.03;;
8421;SDS011;4248;48.196;10.924;2023-04-19T14:35:34;15.70;;;10.00;;
8421;SDS011;4248;48.196;10.924;2023-04-19T14:38:00;18.93;;;10.27;;
8421;SDS011;4248;48.196;10.924;2023-04-19T14:40:25;18.43;;;12.27;;
8421;SDS011;4248;48.196;10.924;2023-04-19T14:42:51;20.90;;;12.77;;
8421;SDS011;4248;48.196;10.924;2023-04-19T14:45:17;22.40;;;13.70;;
8421;SDS011;4248;48.196;10.924;2023-04-19T14:47:43;19.10;;;11.73;;
8421;SDS011;4248;48.196;10.924;2023-04-19T14:50:08;16.63;;;10.33;;
8421;SDS011;4248;48.196;10.924;2023-04-19T14:52:34;18.67;;;12.40;;
8421;SDS011;4248;48.196;10.924;2023-04-19T14:55:00;22.23;;;12.43;;
8421;SDS011;4248;48.196;10.924;2023-04-19T14:57:26;22.53;;;13.53;;
8421;SDS011;4248;48.196;10.924;2023-04-19T14:59:55;22.97;;;14.63;;